Armstrong, Alabama
Current Conditions -  °F | °C
As of 11:15 PM on Tuesday 25 Nov 2014 (Local Time) from KAUO Reporting Station
Overcast Overcast  
Wind Chill:   Ceiling: 9000
Heat Index:   Visibility: 10mi
Dew Point:   Wind: 6mph
Humidity: 57%   Direction: 330°NNW
Pressure: 30.07"   Gusts: NA
Location:  32.2227°N, 85.6394°W
Report Text: KAUO 260515Z AUTO 33005KT 10SM OVC090 09/01 A3007 RMK AO1
Loading
Personal Weather Stations






























Interactive Weather Map New forecast layout! Learn more

10-Day Weather Forecast

Advertisements
Track Severe Weather on mobile